createdAt,value
2023-03-23T16:23:52.107Z,3.20
2023-03-23T16:26:19.363Z,3.30
2023-03-23T16:28:46.155Z,3.50
2023-03-23T16:31:12.663Z,4.00
2023-03-23T16:33:39.659Z,12.40
2023-03-23T16:36:07.079Z,6.80
2023-03-23T16:38:33.968Z,4.20
2023-03-23T16:41:16.887Z,4.70
2023-03-23T16:43:43.554Z,11.90
2023-03-23T16:46:13.155Z,5.00
2023-03-23T16:48:39.692Z,7.60
2023-03-23T16:51:06.658Z,5.50
2023-03-23T16:53:33.318Z,6.70
2023-03-23T16:56:00.167Z,5.50
2023-03-23T16:58:26.588Z,6.00
2023-03-23T17:00:53.483Z,5.60
2023-03-23T17:03:21.735Z,8.20
2023-03-23T17:05:51.038Z,10.70
2023-03-23T17:08:19.253Z,16.60
2023-03-23T17:10:46.398Z,16.80
2023-03-23T17:13:13.341Z,16.60
2023-03-23T17:15:45.300Z,15.60
2023-03-23T17:18:14.631Z,14.50
2023-03-23T17:20:41.041Z,22.50
2023-03-23T17:23:07.598Z,13.60
2023-03-23T17:25:34.124Z,14.00
2023-03-23T17:28:05.305Z,24.70
2023-03-23T17:30:33.367Z,33.40
2023-03-23T17:33:00.156Z,39.10
2023-03-23T17:35:26.897Z,23.90
2023-03-23T17:37:53.322Z,41.40
2023-03-23T17:40:19.902Z,41.60
2023-03-23T17:42:46.367Z,41.90
2023-03-23T17:45:12.859Z,53.50
2023-03-23T17:47:39.483Z,45.30
2023-03-23T17:50:11.520Z,44.50
2023-03-23T17:52:39.716Z,35.00
2023-03-23T17:55:07.140Z,43.50
2023-03-23T17:57:34.932Z,41.90
2023-03-23T18:00:02.525Z,36.40
2023-03-23T18:02:29.048Z,29.20
2023-03-23T18:04:59.435Z,25.60
2023-03-23T18:07:26.376Z,21.20
2023-03-23T18:09:52.847Z,21.00
2023-03-23T18:12:19.370Z,20.90
2023-03-23T18:14:45.866Z,29.00
2023-03-23T18:17:12.279Z,36.10
2023-03-23T18:19:38.752Z,37.60
2023-03-23T18:22:05.763Z,31.70
2023-03-23T18:24:32.224Z,37.60
2023-03-23T18:27:00.235Z,30.80
2023-03-23T18:29:27.021Z,31.60
2023-03-23T18:31:53.452Z,23.10
2023-03-23T18:34:19.926Z,13.90
2023-03-23T18:36:46.335Z,21.40
2023-03-23T18:39:12.875Z,47.00
2023-03-23T18:41:39.367Z,63.70
2023-03-23T18:44:06.253Z,76.20
2023-03-23T18:46:33.396Z,125.70
2023-03-23T18:49:00.030Z,115.80
2023-03-23T18:51:26.604Z,98.30
2023-03-23T18:53:53.190Z,98.20
2023-03-23T18:56:19.730Z,86.80
2023-03-23T18:58:46.647Z,52.90
2023-03-23T19:01:17.232Z,33.80
2023-03-23T19:03:45.464Z,35.80
2023-03-23T19:06:20.652Z,43.50
2023-03-23T19:08:49.114Z,34.10
2023-03-23T19:11:17.176Z,24.90
2023-03-23T19:13:58.440Z,27.40
2023-03-23T19:16:31.084Z,19.50
2023-03-23T19:18:57.721Z,16.40
2023-03-23T19:21:25.660Z,13.20
2023-03-23T19:23:54.777Z,19.90
2023-03-23T19:26:40.853Z,11.00
2023-03-23T19:29:26.822Z,9.30
2023-03-23T19:31:55.928Z,6.90
2023-03-23T19:34:24.688Z,8.60
2023-03-23T19:36:56.382Z,9.50
2023-03-23T19:39:31.256Z,7.50
2023-03-23T19:41:58.416Z,7.90
2023-03-23T19:44:25.228Z,9.20
2023-03-23T19:46:52.354Z,18.60
2023-03-23T19:49:18.781Z,25.60
2023-03-23T19:51:45.309Z,25.20
2023-03-23T19:54:13.207Z,12.20
2023-03-23T19:56:40.104Z,7.40
2023-03-23T19:59:09.595Z,6.20
2023-03-23T20:01:36.374Z,10.70
2023-03-23T20:04:05.094Z,18.70
2023-03-23T20:06:31.979Z,13.20
2023-03-23T20:09:00.051Z,7.80
2023-03-23T20:11:28.216Z,5.30
2023-03-23T20:13:55.416Z,5.50
2023-03-23T20:16:22.264Z,5.40
2023-03-23T20:18:50.007Z,5.10
2023-03-23T20:21:22.573Z,5.10
2023-03-23T20:23:54.145Z,4.80
2023-03-23T20:26:29.743Z,5.00
2023-03-23T20:28:56.693Z,4.60
2023-03-23T20:31:31.730Z,4.60
2023-03-23T20:34:17.104Z,3.70
2023-03-23T20:36:46.915Z,4.60
2023-03-23T20:39:21.081Z,7.90
2023-03-23T20:41:50.850Z,14.90
2023-03-23T20:44:19.753Z,9.60
2023-03-23T20:46:49.782Z,7.60
2023-03-23T20:49:18.435Z,5.30
2023-03-23T20:51:44.985Z,4.90
2023-03-23T20:54:15.756Z,3.90
2023-03-23T20:56:44.442Z,5.60
2023-03-23T20:59:12.137Z,5.70
2023-03-23T21:01:39.966Z,5.40
2023-03-23T21:04:15.012Z,4.90
2023-03-23T21:06:43.995Z,5.30
2023-03-23T21:09:11.285Z,5.20
2023-03-23T21:11:38.289Z,6.00
2023-03-23T21:14:05.840Z,6.60
2023-03-23T21:16:32.427Z,6.90
2023-03-23T21:18:58.946Z,6.80
2023-03-23T21:21:27.331Z,7.30
2023-03-23T21:23:55.599Z,6.80
2023-03-23T21:26:27.919Z,7.00
2023-03-23T21:28:59.629Z,8.00
2023-03-23T21:31:30.582Z,6.90
2023-03-23T21:34:00.918Z,7.00
2023-03-23T21:36:28.488Z,7.30
2023-03-23T21:38:56.405Z,7.10
2023-03-23T21:41:23.993Z,7.80
2023-03-23T21:43:50.502Z,6.60
2023-03-23T21:46:18.314Z,7.40
2023-03-23T21:48:52.554Z,7.00
2023-03-23T21:51:26.872Z,6.40
2023-03-23T21:53:54.680Z,7.80
2023-03-23T21:56:24.968Z,9.60
2023-03-23T21:58:52.125Z,8.90
2023-03-23T22:01:20.558Z,9.10
2023-03-23T22:03:47.350Z,8.80
2023-03-23T22:06:20.941Z,10.40
2023-03-23T22:08:48.009Z,10.60
2023-03-23T22:11:25.351Z,10.10
2023-03-23T22:13:54.435Z,9.90
2023-03-23T22:16:22.341Z,10.20
2023-03-23T22:18:52.209Z,11.00
2023-03-23T22:21:22.108Z,10.10
2023-03-23T22:23:49.685Z,9.20
2023-03-23T22:26:16.628Z,8.30
2023-03-23T22:28:46.262Z,8.10
2023-03-23T22:31:22.016Z,8.10
2023-03-23T22:33:54.099Z,11.50
2023-03-23T22:36:22.946Z,13.90
2023-03-23T22:38:50.360Z,13.60
2023-03-23T22:41:28.283Z,11.90
2023-03-23T22:43:55.470Z,11.60
2023-03-23T22:46:22.064Z,12.10
2023-03-23T22:48:48.938Z,11.60
2023-03-23T22:51:18.833Z,11.60
2023-03-23T22:53:46.350Z,11.50
2023-03-23T22:56:13.933Z,11.80
2023-03-23T22:58:41.030Z,10.40
2023-03-23T23:01:14.427Z,10.90
2023-03-23T23:03:41.126Z,10.90
2023-03-23T23:06:11.245Z,12.40
2023-03-23T23:08:38.228Z,13.20
2023-03-23T23:11:05.730Z,13.20
2023-03-23T23:13:33.299Z,11.80
2023-03-23T23:16:02.250Z,12.60
2023-03-23T23:18:31.023Z,12.30
2023-03-23T23:21:04.354Z,12.20
2023-03-23T23:23:31.717Z,12.20
2023-03-23T23:25:58.342Z,12.10
2023-03-23T23:28:24.836Z,11.90
2023-03-23T23:30:51.540Z,12.30
2023-03-23T23:33:18.981Z,12.70
2023-03-23T23:35:46.431Z,11.90
2023-03-23T23:38:13.914Z,12.20
2023-03-23T23:40:42.810Z,11.70
2023-03-23T23:43:14.888Z,11.70
2023-03-23T23:45:42.102Z,10.70
2023-03-23T23:48:09.345Z,10.50
2023-03-23T23:50:36.544Z,10.60
2023-03-23T23:53:04.808Z,9.90
2023-03-23T23:55:31.556Z,9.50
2023-03-23T23:57:58.013Z,9.30
